sensor_id;sensor_type;location;lat;lon;timestamp;temperature;humidity
7002;DHT22;3541;53.230;10.518;2022-07-26T00:01:45;20.40;99.90
7002;DHT22;3541;53.230;10.518;2022-07-26T00:04:13;20.30;99.90
7002;DHT22;3541;53.230;10.518;2022-07-26T00:06:40;20.20;99.90
7002;DHT22;3541;53.230;10.518;2022-07-26T00:09:07;20.20;99.90
7002;DHT22;3541;53.230;10.518;2022-07-26T00:11:33;20.20;99.90
7002;DHT22;3541;53.230;10.518;2022-07-26T00:14:01;20.20;99.90
7002;DHT22;3541;53.230;10.518;2022-07-26T00:16:28;20.20;99.90
7002;DHT22;3541;53.230;10.518;2022-07-26T00:18:55;20.10;99.90
7002;DHT22;3541;53.230;10.518;2022-07-26T00:21:23;20.10;99.90
7002;DHT22;3541;53.230;10.518;2022-07-26T00:23:50;20.10;99.90
7002;DHT22;3541;53.230;10.518;2022-07-26T00:26:17;20.00;99.90
7002;DHT22;3541;53.230;10.518;2022-07-26T00:28:43;20.10;99.90
7002;DHT22;3541;53.230;10.518;2022-07-26T00:31:10;20.10;99.90
7002;DHT22;3541;53.230;10.518;2022-07-26T00:33:37;20.10;99.90
7002;DHT22;3541;53.230;10.518;2022-07-26T00:36:04;20.00;99.90
7002;DHT22;3541;53.230;10.518;2022-07-26T00:38:32;20.10;99.90
7002;DHT22;3541;53.230;10.518;2022-07-26T00:40:59;20.10;99.90
7002;DHT22;3541;53.230;10.518;2022-07-26T00:43:26;20.10;99.90
7002;DHT22;3541;53.230;10.518;2022-07-26T00:45:52;19.90;99.90
7002;DHT22;3541;53.230;10.518;2022-07-26T00:48:19;19.80;99.90
7002;DHT22;3541;53.230;10.518;2022-07-26T00:50:46;19.80;99.90
7002;DHT22;3541;53.230;10.518;2022-07-26T00:53:13;19.50;99.90
7002;DHT22;3541;53.230;10.518;2022-07-26T00:55:41;19.60;99.90
7002;DHT22;3541;53.230;10.518;2022-07-26T00:58:07;19.60;99.90
7002;DHT22;3541;53.230;10.518;2022-07-26T01:00:34;19.70;99.90
7002;DHT22;3541;53.230;10.518;2022-07-26T01:03:00;19.70;99.90
7002;DHT22;3541;53.230;10.518;2022-07-26T01:05:27;19.80;99.90
7002;DHT22;3541;53.230;10.518;2022-07-26T01:07:54;19.80;99.90
7002;DHT22;3541;53.230;10.518;2022-07-26T01:10:21;19.80;99.90
7002;DHT22;3541;53.230;10.518;2022-07-26T01:12:49;19.80;99.90
7002;DHT22;3541;53.230;10.518;2022-07-26T01:15:16;19.80;99.90
7002;DHT22;3541;53.230;10.518;2022-07-26T01:17:43;19.80;99.90
7002;DHT22;3541;53.230;10.518;2022-07-26T01:20:12;19.80;99.90
7002;DHT22;3541;53.230;10.518;2022-07-26T01:22:40;19.70;99.90
7002;DHT22;3541;53.230;10.518;2022-07-26T01:25:07;19.60;99.90
7002;DHT22;3541;53.230;10.518;2022-07-26T01:27:35;19.70;99.90
7002;DHT22;3541;53.230;10.518;2022-07-26T01:30:06;19.70;99.90
7002;DHT22;3541;53.230;10.518;2022-07-26T01:32:33;19.70;99.90
7002;DHT22;3541;53.230;10.518;2022-07-26T01:34:59;19.70;99.90
7002;DHT22;3541;53.230;10.518;2022-07-26T01:37:26;19.70;99.90
7002;DHT22;3541;53.230;10.518;2022-07-26T01:39:54;19.80;99.90
7002;DHT22;3541;53.230;10.518;2022-07-26T01:42:20;19.70;99.90
7002;DHT22;3541;53.230;10.518;2022-07-26T01:44:47;19.70;99.90
7002;DHT22;3541;53.230;10.518;2022-07-26T01:47:14;19.70;99.90
7002;DHT22;3541;53.230;10.518;2022-07-26T01:49:40;19.70;99.90
7002;DHT22;3541;53.230;10.518;2022-07-26T01:52:07;19.70;99.90
7002;DHT22;3541;53.230;10.518;2022-07-26T01:54:34;19.60;99.90
7002;DHT22;3541;53.230;10.518;2022-07-26T01:57:02;19.60;99.90
7002;DHT22;3541;53.230;10.518;2022-07-26T01:59:28;19.60;99.90
7002;DHT22;3541;53.230;10.518;2022-07-26T02:01:55;19.60;99.90
7002;DHT22;3541;53.230;10.518;2022-07-26T02:04:22;19.60;99.90
7002;DHT22;3541;53.230;10.518;2022-07-26T02:07:06;19.60;99.90
7002;DHT22;3541;53.230;10.518;2022-07-26T02:09:33;19.50;99.90
7002;DHT22;3541;53.230;10.518;2022-07-26T02:12:02;19.50;99.90
7002;DHT22;3541;53.230;10.518;2022-07-26T02:14:29;19.60;99.90
7002;DHT22;3541;53.230;10.518;2022-07-26T02:16:55;19.60;99.90
7002;DHT22;3541;53.230;10.518;2022-07-26T02:19:24;19.60;99.90
7002;DHT22;3541;53.230;10.518;2022-07-26T02:21:50;19.50;99.90
7002;DHT22;3541;53.230;10.518;2022-07-26T02:24:17;19.50;99.90
7002;DHT22;3541;53.230;10.518;2022-07-26T02:26:44;19.50;99.90
7002;DHT22;3541;53.230;10.518;2022-07-26T02:29:12;19.60;99.90
7002;DHT22;3541;53.230;10.518;2022-07-26T02:31:39;19.50;99.90
7002;DHT22;3541;53.230;10.518;2022-07-26T02:34:06;19.50;99.90
7002;DHT22;3541;53.230;10.518;2022-07-26T02:36:33;19.50;99.90
7002;DHT22;3541;53.230;10.518;2022-07-26T02:38:59;19.40;99.90
7002;DHT22;3541;53.230;10.518;2022-07-26T02:41:26;19.50;99.90
7002;DHT22;3541;53.230;10.518;2022-07-26T02:43:53;19.40;99.90
7002;DHT22;3541;53.230;10.518;2022-07-26T02:46:21;19.30;99.90
7002;DHT22;3541;53.230;10.518;2022-07-26T02:48:47;19.40;99.90
7002;DHT22;3541;53.230;10.518;2022-07-26T02:51:14;19.30;99.90
7002;DHT22;3541;53.230;10.518;2022-07-26T02:53:41;19.30;99.90
7002;DHT22;3541;53.230;10.518;2022-07-26T02:56:08;19.30;99.90
7002;DHT22;3541;53.230;10.518;2022-07-26T02:58:35;19.20;99.90
7002;DHT22;3541;53.230;10.518;2022-07-26T03:01:03;19.20;99.90
7002;DHT22;3541;53.230;10.518;2022-07-26T03:03:31;19.10;99.90
7002;DHT22;3541;53.230;10.518;2022-07-26T03:05:57;19.10;99.90
7002;DHT22;3541;53.230;10.518;2022-07-26T03:08:24;19.20;99.90
7002;DHT22;3541;53.230;10.518;2022-07-26T03:10:50;19.10;99.90
7002;DHT22;3541;53.230;10.518;2022-07-26T03:13:17;19.10;99.90
7002;DHT22;3541;53.230;10.518;2022-07-26T03:15:44;19.10;99.90
7002;DHT22;3541;53.230;10.518;2022-07-26T03:18:10;19.10;99.90
7002;DHT22;3541;53.230;10.518;2022-07-26T03:20:38;19.10;99.90
7002;DHT22;3541;53.230;10.518;2022-07-26T03:23:05;19.20;99.90
7002;DHT22;3541;53.230;10.518;2022-07-26T03:25:31;19.20;99.90
7002;DHT22;3541;53.230;10.518;2022-07-26T03:27:58;19.20;99.90
7002;DHT22;3541;53.230;10.518;2022-07-26T03:30:24;19.20;99.90
7002;DHT22;3541;53.230;10.518;2022-07-26T03:32:51;19.10;99.90
7002;DHT22;3541;53.230;10.518;2022-07-26T03:35:18;19.10;99.90
7002;DHT22;3541;53.230;10.518;2022-07-26T03:37:46;19.00;99.90
7002;DHT22;3541;53.230;10.518;2022-07-26T03:40:14;19.00;99.90
7002;DHT22;3541;53.230;10.518;2022-07-26T03:42:40;18.90;99.90
7002;DHT22;3541;53.230;10.518;2022-07-26T03:45:08;19.00;99.90
7002;DHT22;3541;53.230;10.518;2022-07-26T03:47:34;19.00;99.90
7002;DHT22;3541;53.230;10.518;2022-07-26T03:50:01;18.90;99.90
7002;DHT22;3541;53.230;10.518;2022-07-26T03:52:28;19.00;99.90
7002;DHT22;3541;53.230;10.518;2022-07-26T03:54:56;19.10;99.90
7002;DHT22;3541;53.230;10.518;2022-07-26T03:57:23;18.90;99.90
7002;DHT22;3541;53.230;10.518;2022-07-26T03:59:48;18.90;99.90
7002;DHT22;3541;53.230;10.518;2022-07-26T04:02:15;18.90;99.90
7002;DHT22;3541;53.230;10.518;2022-07-26T04:04:42;18.70;99.90
7002;DHT22;3541;53.230;10.518;2022-07-26T04:07:09;18.70;99.90
7002;DHT22;3541;53.230;10.518;2022-07-26T04:09:35;18.80;99.90
7002;DHT22;3541;53.230;10.518;2022-07-26T04:12:04;18.80;99.90
7002;DHT22;3541;53.230;10.518;2022-07-26T04:14:31;18.90;99.90
7002;DHT22;3541;53.230;10.518;2022-07-26T04:16:58;18.90;99.90
7002;DHT22;3541;53.230;10.518;2022-07-26T04:19:24;18.90;99.90
7002;DHT22;3541;53.230;10.518;2022-07-26T04:21:51;19.00;99.90
7002;DHT22;3541;53.230;10.518;2022-07-26T04:24:17;19.00;99.90
7002;DHT22;3541;53.230;10.518;2022-07-26T04:26:44;18.80;99.90
7002;DHT22;3541;53.230;10.518;2022-07-26T04:29:12;18.80;99.90
7002;DHT22;3541;53.230;10.518;2022-07-26T04:31:39;18.80;99.90
7002;DHT22;3541;53.230;10.518;2022-07-26T04:34:06;18.70;99.90
7002;DHT22;3541;53.230;10.518;2022-07-26T04:36:32;18.80;99.90
7002;DHT22;3541;53.230;10.518;2022-07-26T04:38:59;18.90;99.90
7002;DHT22;3541;53.230;10.518;2022-07-26T04:41:25;18.80;99.90
7002;DHT22;3541;53.230;10.518;2022-07-26T04:43:52;18.90;99.90
7002;DHT22;3541;53.230;10.518;2022-07-26T04:46:21;18.90;99.90
7002;DHT22;3541;53.230;10.518;2022-07-26T04:48:49;18.90;99.90
7002;DHT22;3541;53.230;10.518;2022-07-26T04:51:15;18.80;99.90
7002;DHT22;3541;53.230;10.518;2022-07-26T04:53:42;18.90;99.90
7002;DHT22;3541;53.230;10.518;2022-07-26T04:56:09;19.00;99.90
7002;DHT22;3541;53.230;10.518;2022-07-26T04:58:35;19.00;99.90
7002;DHT22;3541;53.230;10.518;2022-07-26T05:01:02;19.00;99.90
7002;DHT22;3541;53.230;10.518;2022-07-26T05:03:30;19.10;99.90
7002;DHT22;3541;53.230;10.518;2022-07-26T05:05:57;19.10;99.90
7002;DHT22;3541;53.230;10.518;2022-07-26T05:08:23;19.10;99.90
7002;DHT22;3541;53.230;10.518;2022-07-26T05:10:50;19.20;99.90
7002;DHT22;3541;53.230;10.518;2022-07-26T05:13:16;19.10;99.90
7002;DHT22;3541;53.230;10.518;2022-07-26T05:15:43;19.10;99.90
7002;DHT22;3541;53.230;10.518;2022-07-26T05:18:10;19.10;99.90
7002;DHT22;3541;53.230;10.518;2022-07-26T05:20:38;19.10;99.90
7002;DHT22;3541;53.230;10.518;2022-07-26T05:23:04;19.10;99.90
7002;DHT22;3541;53.230;10.518;2022-07-26T05:25:31;19.10;99.90
7002;DHT22;3541;53.230;10.518;2022-07-26T05:27:58;19.20;99.90
7002;DHT22;3541;53.230;10.518;2022-07-26T05:30:24;19.20;99.90
7002;DHT22;3541;53.230;10.518;2022-07-26T05:32:51;19.20;99.90
7002;DHT22;3541;53.230;10.518;2022-07-26T05:35:17;19.20;99.90
7002;DHT22;3541;53.230;10.518;2022-07-26T05:37:45;19.20;99.90
7002;DHT22;3541;53.230;10.518;2022-07-26T05:40:12;19.20;99.90
7002;DHT22;3541;53.230;10.518;2022-07-26T05:42:39;19.30;99.90
7002;DHT22;3541;53.230;10.518;2022-07-26T05:45:07;19.30;99.90
7002;DHT22;3541;53.230;10.518;2022-07-26T05:47:33;19.40;99.90
7002;DHT22;3541;53.230;10.518;2022-07-26T05:50:00;19.40;99.90
7002;DHT22;3541;53.230;10.518;2022-07-26T05:52:26;19.60;99.90
7002;DHT22;3541;53.230;10.518;2022-07-26T05:54:54;19.60;99.90
7002;DHT22;3541;53.230;10.518;2022-07-26T05:57:21;19.50;99.90
7002;DHT22;3541;53.230;10.518;2022-07-26T05:59:47;19.50;99.90
7002;DHT22;3541;53.230;10.518;2022-07-26T06:02:14;19.40;99.90
7002;DHT22;3541;53.230;10.518;2022-07-26T06:04:40;19.50;99.90
7002;DHT22;3541;53.230;10.518;2022-07-26T06:07:07;19.50;99.90
7002;DHT22;3541;53.230;10.518;2022-07-26T06:09:34;19.50;99.90
7002;DHT22;3541;53.230;10.518;2022-07-26T06:12:02;19.40;99.90
7002;DHT22;3541;53.230;10.518;2022-07-26T06:14:29;19.50;99.90
7002;DHT22;3541;53.230;10.518;2022-07-26T06:16:55;19.60;99.90
7002;DHT22;3541;53.230;10.518;2022-07-26T06:19:22;19.50;99.90
7002;DHT22;3541;53.230;10.518;2022-07-26T06:21:49;19.60;99.90
7002;DHT22;3541;53.230;10.518;2022-07-26T06:24:15;19.60;99.90
7002;DHT22;3541;53.230;10.518;2022-07-26T06:26:42;19.50;99.90
7002;DHT22;3541;53.230;10.518;2022-07-26T06:29:12;19.60;99.90
7002;DHT22;3541;53.230;10.518;2022-07-26T06:31:38;19.60;99.90
7002;DHT22;3541;53.230;10.518;2022-07-26T06:34:05;19.70;99.90
7002;DHT22;3541;53.230;10.518;2022-07-26T06:36:31;19.80;99.90
7002;DHT22;3541;53.230;10.518;2022-07-26T06:38:58;19.80;99.90
7002;DHT22;3541;53.230;10.518;2022-07-26T06:41:24;19.90;99.90
7002;DHT22;3541;53.230;10.518;2022-07-26T06:43:51;19.90;99.90
7002;DHT22;3541;53.230;10.518;2022-07-26T06:46:19;20.00;99.90
7002;DHT22;3541;53.230;10.518;2022-07-26T06:48:46;20.00;99.90
7002;DHT22;3541;53.230;10.518;2022-07-26T06:51:13;20.00;99.90
7002;DHT22;3541;53.230;10.518;2022-07-26T06:53:39;19.90;99.90
7002;DHT22;3541;53.230;10.518;2022-07-26T06:56:06;19.90;99.90
7002;DHT22;3541;53.230;10.518;2022-07-26T06:58:33;20.10;99.90
7002;DHT22;3541;53.230;10.518;2022-07-26T07:01:00;20.10;99.90
7002;DHT22;3541;53.230;10.518;2022-07-26T07:03:28;20.10;99.90
7002;DHT22;3541;53.230;10.518;2022-07-26T07:05:54;20.20;99.90
7002;DHT22;3541;53.230;10.518;2022-07-26T07:08:21;20.20;99.90
7002;DHT22;3541;53.230;10.518;2022-07-26T07:10:49;20.30;99.90
7002;DHT22;3541;53.230;10.518;2022-07-26T07:13:15;20.30;99.90
7002;DHT22;3541;53.230;10.518;2022-07-26T07:15:42;20.30;99.90
7002;DHT22;3541;53.230;10.518;2022-07-26T07:18:09;20.20;99.90
7002;DHT22;3541;53.230;10.518;2022-07-26T07:20:37;19.80;99.90
7002;DHT22;3541;53.230;10.518;2022-07-26T07:23:04;19.40;99.90
7002;DHT22;3541;53.230;10.518;2022-07-26T07:25:32;19.00;99.90
7002;DHT22;3541;53.230;10.518;2022-07-26T07:27:58;18.90;99.90
7002;DHT22;3541;53.230;10.518;2022-07-26T07:30:25;18.80;99.90
7002;DHT22;3541;53.230;10.518;2022-07-26T07:32:52;18.70;99.90
7002;DHT22;3541;53.230;10.518;2022-07-26T07:35:19;18.70;99.90
7002;DHT22;3541;53.230;10.518;2022-07-26T07:37:47;19.00;99.90
7002;DHT22;3541;53.230;10.518;2022-07-26T07:40:14;19.00;99.90
7002;DHT22;3541;53.230;10.518;2022-07-26T07:42:41;19.10;99.90
7002;DHT22;3541;53.230;10.518;2022-07-26T07:45:08;19.10;99.90
7002;DHT22;3541;53.230;10.518;2022-07-26T07:47:36;19.00;99.90
7002;DHT22;3541;53.230;10.518;2022-07-26T07:50:03;19.10;99.90
7002;DHT22;3541;53.230;10.518;2022-07-26T07:52:30;19.20;99.90
7002;DHT22;3541;53.230;10.518;2022-07-26T07:54:58;19.30;99.90
7002;DHT22;3541;53.230;10.518;2022-07-26T07:57:24;19.20;99.90
7002;DHT22;3541;53.230;10.518;2022-07-26T07:59:51;19.20;99.90
7002;DHT22;3541;53.230;10.518;2022-07-26T08:02:18;19.20;99.90
7002;DHT22;3541;53.230;10.518;2022-07-26T08:04:44;19.30;99.90
7002;DHT22;3541;53.230;10.518;2022-07-26T08:07:11;19.30;99.90
7002;DHT22;3541;53.230;10.518;2022-07-26T08:09:37;19.40;99.90
7002;DHT22;3541;53.230;10.518;2022-07-26T08:12:05;19.40;99.90
7002;DHT22;3541;53.230;10.518;2022-07-26T08:14:32;19.40;99.90
7002;DHT22;3541;53.230;10.518;2022-07-26T08:16:58;19.50;99.90
7002;DHT22;3541;53.230;10.518;2022-07-26T08:19:25;19.70;99.90
7002;DHT22;3541;53.230;10.518;2022-07-26T08:21:52;19.60;99.90
7002;DHT22;3541;53.230;10.518;2022-07-26T08:24:18;19.50;99.90
7002;DHT22;3541;53.230;10.518;2022-07-26T08:26:45;19.40;99.90
7002;DHT22;3541;53.230;10.518;2022-07-26T08:29:13;19.40;99.90
7002;DHT22;3541;53.230;10.518;2022-07-26T08:31:39;19.40;99.90
7002;DHT22;3541;53.230;10.518;2022-07-26T08:34:06;19.50;99.90
7002;DHT22;3541;53.230;10.518;2022-07-26T08:36:32;19.70;99.90
7002;DHT22;3541;53.230;10.518;2022-07-26T08:38:59;19.90;99.90
7002;DHT22;3541;53.230;10.518;2022-07-26T08:41:26;19.70;99.90
7002;DHT22;3541;53.230;10.518;2022-07-26T08:43:52;19.70;99.90
7002;DHT22;3541;53.230;10.518;2022-07-26T08:46:23;19.60;99.90
7002;DHT22;3541;53.230;10.518;2022-07-26T08:48:49;19.70;99.90
7002;DHT22;3541;53.230;10.518;2022-07-26T08:51:17;19.90;99.90
7002;DHT22;3541;53.230;10.518;2022-07-26T08:53:46;20.00;99.90
7002;DHT22;3541;53.230;10.518;2022-07-26T08:56:12;20.20;99.90
7002;DHT22;3541;53.230;10.518;2022-07-26T08:58:39;20.30;99.90
7002;DHT22;3541;53.230;10.518;2022-07-26T09:01:09;20.20;99.90
7002;DHT22;3541;53.230;10.518;2022-07-26T09:03:39;20.20;99.90
7002;DHT22;3541;53.230;10.518;2022-07-26T09:06:13;20.20;99.90
7002;DHT22;3541;53.230;10.518;2022-07-26T09:08:41;20.00;99.90
7002;DHT22;3541;53.230;10.518;2022-07-26T09:11:28;19.90;99.90
7002;DHT22;3541;53.230;10.518;2022-07-26T09:13:56;19.90;99.90
7002;DHT22;3541;53.230;10.518;2022-07-26T09:16:23;19.90;99.90
7002;DHT22;3541;53.230;10.518;2022-07-26T09:18:52;20.00;99.90
7002;DHT22;3541;53.230;10.518;2022-07-26T09:21:29;20.00;99.90
7002;DHT22;3541;53.230;10.518;2022-07-26T09:23:56;20.10;99.90
7002;DHT22;3541;53.230;10.518;2022-07-26T09:26:23;20.20;99.90
7002;DHT22;3541;53.230;10.518;2022-07-26T09:29:05;20.60;99.90
7002;DHT22;3541;53.230;10.518;2022-07-26T09:31:33;20.80;99.90
7002;DHT22;3541;53.230;10.518;2022-07-26T09:34:01;20.60;99.90
7002;DHT22;3541;53.230;10.518;2022-07-26T09:36:27;20.50;99.90
7002;DHT22;3541;53.230;10.518;2022-07-26T09:38:55;20.40;99.90
7002;DHT22;3541;53.230;10.518;2022-07-26T09:41:25;20.50;99.90
7002;DHT22;3541;53.230;10.518;2022-07-26T09:43:53;20.40;99.90
7002;DHT22;3541;53.230;10.518;2022-07-26T09:46:21;20.40;99.90
7002;DHT22;3541;53.230;10.518;2022-07-26T09:48:50;20.40;99.90
7002;DHT22;3541;53.230;10.518;2022-07-26T09:51:34;20.50;99.90
7002;DHT22;3541;53.230;10.518;2022-07-26T09:54:01;20.40;99.90
7002;DHT22;3541;53.230;10.518;2022-07-26T09:56:41;20.30;99.90
7002;DHT22;3541;53.230;10.518;2022-07-26T09:59:08;20.40;99.90
7002;DHT22;3541;53.230;10.518;2022-07-26T10:01:35;20.50;99.90
7002;DHT22;3541;53.230;10.518;2022-07-26T10:04:02;20.70;99.90
7002;DHT22;3541;53.230;10.518;2022-07-26T10:06:30;20.80;99.90
7002;DHT22;3541;53.230;10.518;2022-07-26T10:08:57;20.70;99.90
7002;DHT22;3541;53.230;10.518;2022-07-26T10:11:24;20.50;99.90
7002;DHT22;3541;53.230;10.518;2022-07-26T10:13:52;20.70;99.90
7002;DHT22;3541;53.230;10.518;2022-07-26T10:16:28;20.80;99.90
7002;DHT22;3541;53.230;10.518;2022-07-26T10:18:56;20.70;99.90
7002;DHT22;3541;53.230;10.518;2022-07-26T10:21:24;20.70;99.90
7002;DHT22;3541;53.230;10.518;2022-07-26T10:23:53;20.80;99.90
7002;DHT22;3541;53.230;10.518;2022-07-26T10:26:38;20.80;99.90
7002;DHT22;3541;53.230;10.518;2022-07-26T10:29:19;20.60;99.90
7002;DHT22;3541;53.230;10.518;2022-07-26T10:31:49;20.20;99.90
7002;DHT22;3541;53.230;10.518;2022-07-26T10:34:37;20.00;99.90
7002;DHT22;3541;53.230;10.518;2022-07-26T10:37:06;20.00;99.90
7002;DHT22;3541;53.230;10.518;2022-07-26T10:39:36;19.80;99.90
7002;DHT22;3541;53.230;10.518;2022-07-26T10:42:05;19.70;99.90
7002;DHT22;3541;53.230;10.518;2022-07-26T10:44:34;19.80;99.90
7002;DHT22;3541;53.230;10.518;2022-07-26T10:47:14;19.80;99.90
7002;DHT22;3541;53.230;10.518;2022-07-26T10:49:52;19.70;99.90
7002;DHT22;3541;53.230;10.518;2022-07-26T10:52:23;19.90;99.90
7002;DHT22;3541;53.230;10.518;2022-07-26T10:55:16;20.10;99.90
7002;DHT22;3541;53.230;10.518;2022-07-26T10:57:45;20.20;99.90
7002;DHT22;3541;53.230;10.518;2022-07-26T11:00:18;19.90;99.90
7002;DHT22;3541;53.230;10.518;2022-07-26T11:03:03;19.90;99.90
7002;DHT22;3541;53.230;10.518;2022-07-26T11:05:31;19.90;99.90
7002;DHT22;3541;53.230;10.518;2022-07-26T11:08:04;20.20;99.90
7002;DHT22;3541;53.230;10.518;2022-07-26T11:10:36;20.60;99.90
7002;DHT22;3541;53.230;10.518;2022-07-26T11:15:51;20.90;99.90
7002;DHT22;3541;53.230;10.518;2022-07-26T11:18:20;21.00;99.90
7002;DHT22;3541;53.230;10.518;2022-07-26T11:20:51;20.80;99.90
7002;DHT22;3541;53.230;10.518;2022-07-26T11:23:27;20.90;99.90
7002;DHT22;3541;53.230;10.518;2022-07-26T11:26:03;20.80;99.90
7002;DHT22;3541;53.230;10.518;2022-07-26T11:28:29;21.00;99.90
7002;DHT22;3541;53.230;10.518;2022-07-26T11:31:07;21.10;99.90
7002;DHT22;3541;53.230;10.518;2022-07-26T11:33:34;21.20;99.90
7002;DHT22;3541;53.230;10.518;2022-07-26T11:36:02;21.30;99.90
7002;DHT22;3541;53.230;10.518;2022-07-26T11:38:43;21.40;99.90
7002;DHT22;3541;53.230;10.518;2022-07-26T11:41:11;21.20;99.90
7002;DHT22;3541;53.230;10.518;2022-07-26T11:43:39;20.70;99.90
7002;DHT22;3541;53.230;10.518;2022-07-26T11:46:06;20.40;99.90
7002;DHT22;3541;53.230;10.518;2022-07-26T11:48:33;20.30;99.90
7002;DHT22;3541;53.230;10.518;2022-07-26T11:51:08;20.20;99.90
7002;DHT22;3541;53.230;10.518;2022-07-26T11:53:35;20.20;99.90
7002;DHT22;3541;53.230;10.518;2022-07-26T11:56:11;20.10;99.90
7002;DHT22;3541;53.230;10.518;2022-07-26T11:58:39;20.10;99.90
7002;DHT22;3541;53.230;10.518;2022-07-26T12:01:07;20.50;99.90
7002;DHT22;3541;53.230;10.518;2022-07-26T12:03:34;21.00;99.90
7002;DHT22;3541;53.230;10.518;2022-07-26T12:06:02;21.20;99.90
7002;DHT22;3541;53.230;10.518;2022-07-26T12:08:41;21.10;99.90
7002;DHT22;3541;53.230;10.518;2022-07-26T12:11:08;21.30;99.90
7002;DHT22;3541;53.230;10.518;2022-07-26T12:13:54;21.50;99.90
7002;DHT22;3541;53.230;10.518;2022-07-26T12:16:38;21.30;99.90
7002;DHT22;3541;53.230;10.518;2022-07-26T12:19:07;21.10;99.90
7002;DHT22;3541;53.230;10.518;2022-07-26T12:21:40;20.80;99.90
7002;DHT22;3541;53.230;10.518;2022-07-26T12:24:07;20.60;99.90
7002;DHT22;3541;53.230;10.518;2022-07-26T12:26:34;20.60;99.90
7002;DHT22;3541;53.230;10.518;2022-07-26T12:29:03;20.40;99.90
7002;DHT22;3541;53.230;10.518;2022-07-26T12:32:06;20.40;99.90
7002;DHT22;3541;53.230;10.518;2022-07-26T12:34:34;20.40;99.90
7002;DHT22;3541;53.230;10.518;2022-07-26T12:37:13;20.50;99.90
7002;DHT22;3541;53.230;10.518;2022-07-26T12:39:41;20.50;99.90
7002;DHT22;3541;53.230;10.518;2022-07-26T12:42:21;20.40;99.90
7002;DHT22;3541;53.230;10.518;2022-07-26T12:44:50;20.30;99.90
7002;DHT22;3541;53.230;10.518;2022-07-26T12:47:16;20.30;99.90
7002;DHT22;3541;53.230;10.518;2022-07-26T12:49:43;20.40;99.90
7002;DHT22;3541;53.230;10.518;2022-07-26T12:52:13;20.50;99.90
7002;DHT22;3541;53.230;10.518;2022-07-26T12:54:39;20.70;99.90
7002;DHT22;3541;53.230;10.518;2022-07-26T12:57:06;20.80;99.90
7002;DHT22;3541;53.230;10.518;2022-07-26T12:59:32;20.90;99.90
7002;DHT22;3541;53.230;10.518;2022-07-26T13:02:01;21.00;99.90
7002;DHT22;3541;53.230;10.518;2022-07-26T13:04:29;20.90;99.90
7002;DHT22;3541;53.230;10.518;2022-07-26T13:06:55;20.90;99.90
7002;DHT22;3541;53.230;10.518;2022-07-26T13:09:22;20.90;99.90
7002;DHT22;3541;53.230;10.518;2022-07-26T13:11:48;20.80;99.90
7002;DHT22;3541;53.230;10.518;2022-07-26T13:14:15;20.70;99.90
7002;DHT22;3541;53.230;10.518;2022-07-26T13:16:42;21.00;99.90
7002;DHT22;3541;53.230;10.518;2022-07-26T13:19:09;21.10;99.90
7002;DHT22;3541;53.230;10.518;2022-07-26T13:21:36;21.20;99.90
7002;DHT22;3541;53.230;10.518;2022-07-26T13:24:03;21.40;99.90
7002;DHT22;3541;53.230;10.518;2022-07-26T13:26:29;21.50;99.90
7002;DHT22;3541;53.230;10.518;2022-07-26T13:28:56;21.70;99.90
7002;DHT22;3541;53.230;10.518;2022-07-26T13:31:23;21.90;99.90
7002;DHT22;3541;53.230;10.518;2022-07-26T13:33:49;22.20;99.90
7002;DHT22;3541;53.230;10.518;2022-07-26T13:36:17;22.30;99.90
7002;DHT22;3541;53.230;10.518;2022-07-26T13:38:44;22.50;99.90
7002;DHT22;3541;53.230;10.518;2022-07-26T13:41:11;22.70;99.90
7002;DHT22;3541;53.230;10.518;2022-07-26T13:43:37;22.80;99.90
7002;DHT22;3541;53.230;10.518;2022-07-26T13:46:04;22.70;99.90
7002;DHT22;3541;53.230;10.518;2022-07-26T13:48:31;22.20;99.90
7002;DHT22;3541;53.230;10.518;2022-07-26T13:50:57;22.00;99.90
7002;DHT22;3541;53.230;10.518;2022-07-26T13:53:25;21.80;99.90
7002;DHT22;3541;53.230;10.518;2022-07-26T13:55:54;21.50;99.90
7002;DHT22;3541;53.230;10.518;2022-07-26T13:58:21;21.30;99.90
7002;DHT22;3541;53.230;10.518;2022-07-26T14:00:48;21.30;99.90
7002;DHT22;3541;53.230;10.518;2022-07-26T14:03:15;21.20;99.90
7002;DHT22;3541;53.230;10.518;2022-07-26T14:05:41;21.10;99.90
7002;DHT22;3541;53.230;10.518;2022-07-26T14:08:08;21.30;99.90
7002;DHT22;3541;53.230;10.518;2022-07-26T14:10:36;21.60;99.90
7002;DHT22;3541;53.230;10.518;2022-07-26T14:13:04;22.00;99.90
7002;DHT22;3541;53.230;10.518;2022-07-26T14:15:31;22.30;99.90
7002;DHT22;3541;53.230;10.518;2022-07-26T14:17:57;22.40;99.90
7002;DHT22;3541;53.230;10.518;2022-07-26T14:20:24;22.50;99.90
7002;DHT22;3541;53.230;10.518;2022-07-26T14:22:51;22.70;99.90
7002;DHT22;3541;53.230;10.518;2022-07-26T14:25:20;22.90;99.90
7002;DHT22;3541;53.230;10.518;2022-07-26T14:27:48;23.10;99.90
7002;DHT22;3541;53.230;10.518;2022-07-26T14:30:15;23.00;99.90
7002;DHT22;3541;53.230;10.518;2022-07-26T14:32:42;23.20;99.90
7002;DHT22;3541;53.230;10.518;2022-07-26T14:35:09;23.30;99.90
7002;DHT22;3541;53.230;10.518;2022-07-26T14:37:36;23.50;99.90
7002;DHT22;3541;53.230;10.518;2022-07-26T14:40:04;23.60;99.90
7002;DHT22;3541;53.230;10.518;2022-07-26T14:42:31;23.60;99.90
7002;DHT22;3541;53.230;10.518;2022-07-26T14:44:59;23.80;99.90
7002;DHT22;3541;53.230;10.518;2022-07-26T14:47:26;23.80;99.90
7002;DHT22;3541;53.230;10.518;2022-07-26T14:49:53;23.60;99.90
7002;DHT22;3541;53.230;10.518;2022-07-26T14:52:19;23.90;99.90
7002;DHT22;3541;53.230;10.518;2022-07-26T14:54:46;24.00;99.90
7002;DHT22;3541;53.230;10.518;2022-07-26T14:57:13;23.60;99.90
7002;DHT22;3541;53.230;10.518;2022-07-26T14:59:40;23.70;99.90
7002;DHT22;3541;53.230;10.518;2022-07-26T15:02:08;23.60;99.90
7002;DHT22;3541;53.230;10.518;2022-07-26T15:04:36;23.90;99.90
7002;DHT22;3541;53.230;10.518;2022-07-26T15:07:02;24.20;99.90
7002;DHT22;3541;53.230;10.518;2022-07-26T15:09:29;24.20;99.90
7002;DHT22;3541;53.230;10.518;2022-07-26T15:11:55;24.10;99.90
7002;DHT22;3541;53.230;10.518;2022-07-26T15:14:23;24.10;99.90
7002;DHT22;3541;53.230;10.518;2022-07-26T15:16:49;24.00;99.90
7002;DHT22;3541;53.230;10.518;2022-07-26T15:19:17;24.20;99.90
7002;DHT22;3541;53.230;10.518;2022-07-26T15:21:44;24.40;99.90
7002;DHT22;3541;53.230;10.518;2022-07-26T15:24:10;24.60;99.90
7002;DHT22;3541;53.230;10.518;2022-07-26T15:26:38;24.40;99.90
7002;DHT22;3541;53.230;10.518;2022-07-26T15:29:04;23.80;99.90
7002;DHT22;3541;53.230;10.518;2022-07-26T15:31:31;23.80;99.90
7002;DHT22;3541;53.230;10.518;2022-07-26T15:33:58;24.10;99.90
7002;DHT22;3541;53.230;10.518;2022-07-26T15:36:26;24.30;99.90
7002;DHT22;3541;53.230;10.518;2022-07-26T15:38:53;23.90;99.90
7002;DHT22;3541;53.230;10.518;2022-07-26T15:41:19;24.00;99.90
7002;DHT22;3541;53.230;10.518;2022-07-26T15:43:47;24.20;99.90
7002;DHT22;3541;53.230;10.518;2022-07-26T15:46:13;24.30;99.90
7002;DHT22;3541;53.230;10.518;2022-07-26T15:48:40;24.40;99.90
7002;DHT22;3541;53.230;10.518;2022-07-26T15:51:07;24.40;99.90
7002;DHT22;3541;53.230;10.518;2022-07-26T15:53:35;24.50;99.90